createdAt,value
2023-05-19T00:01:01.452Z,101312.69
2023-05-19T00:03:34.208Z,101307.58
2023-05-19T00:06:06.340Z,101311.63
2023-05-19T00:08:39.468Z,101312.33
2023-05-19T00:11:12.112Z,101317.83
2023-05-19T00:13:48.413Z,101315.98
2023-05-19T00:16:20.018Z,101319.22
2023-05-19T00:18:51.811Z,101323.89
2023-05-19T00:21:23.654Z,101323.54
2023-05-19T00:23:54.747Z,101332.84
2023-05-19T00:26:27.675Z,101331.54
2023-05-19T00:29:03.803Z,101332.34
2023-05-19T00:31:35.366Z,101334.51
2023-05-19T00:34:06.975Z,101333.46
2023-05-19T00:36:38.860Z,101335.36
2023-05-19T00:39:10.249Z,101334.42
2023-05-19T00:41:41.638Z,101338.62
2023-05-19T00:44:12.630Z,101338.79
2023-05-19T00:46:43.792Z,101340.83
2023-05-19T00:49:15.112Z,101345.81
2023-05-19T00:51:46.777Z,101345.96
2023-05-19T00:54:19.780Z,101348.49
2023-05-19T00:56:51.288Z,101352.44
2023-05-19T00:59:22.647Z,101351.55
2023-05-19T01:01:54.430Z,101350.21
2023-05-19T01:04:25.757Z,101351.35
2023-05-19T01:06:57.691Z,101350.30
2023-05-19T01:09:30.763Z,101346.13
2023-05-19T01:12:02.133Z,101344.58
2023-05-19T01:14:33.394Z,101340.20
2023-05-19T01:17:09.949Z,101341.98
2023-05-19T01:19:57.608Z,101339.09
2023-05-19T01:22:43.077Z,101337.74
2023-05-19T01:25:47.033Z,101336.58
2023-05-19T01:28:33.254Z,101334.42
2023-05-19T01:31:07.552Z,101335.38
2023-05-19T01:33:40.369Z,101332.48
2023-05-19T01:36:14.718Z,101331.05
2023-05-19T01:38:47.337Z,101330.77
2023-05-19T01:41:19.841Z,101327.60
2023-05-19T01:43:52.280Z,101323.06
2023-05-19T01:46:24.878Z,101317.23
2023-05-19T01:48:57.205Z,101314.52
2023-05-19T01:51:29.326Z,101308.16
2023-05-19T01:54:00.761Z,101306.98
2023-05-19T01:56:46.734Z,101305.05
2023-05-19T01:59:35.227Z,101303.54
2023-05-19T02:02:16.874Z,101303.09
2023-05-19T02:04:56.615Z,101304.64
2023-05-19T02:07:38.858Z,101305.50
2023-05-19T02:10:19.946Z,101299.98
2023-05-19T02:12:54.665Z,101299.18
2023-05-19T02:15:31.344Z,101285.89
2023-05-19T02:18:05.867Z,101283.73
2023-05-19T02:20:37.319Z,101288.08
2023-05-19T02:23:08.714Z,101283.85
2023-05-19T02:25:39.612Z,101281.55
2023-05-19T02:28:10.960Z,101276.88
2023-05-19T02:30:42.867Z,101271.20
2023-05-19T02:33:14.707Z,101270.02
2023-05-19T02:35:47.627Z,101265.91
2023-05-19T02:38:19.366Z,101262.72
2023-05-19T02:40:52.866Z,101261.84
2023-05-19T02:43:24.173Z,101261.67
2023-05-19T02:45:55.166Z,101261.58
2023-05-19T02:48:26.702Z,101255.75
2023-05-19T02:50:58.023Z,101257.33
2023-05-19T02:53:29.773Z,101251.45
2023-05-19T02:56:00.773Z,101250.63
2023-05-19T02:58:32.098Z,101247.91
2023-05-19T03:01:03.111Z,101247.05
2023-05-19T03:03:34.637Z,101245.55
2023-05-19T03:06:08.921Z,101241.58
2023-05-19T03:08:42.346Z,101236.30
2023-05-19T03:11:13.866Z,101234.20
2023-05-19T03:13:45.158Z,101235.71
2023-05-19T03:16:16.691Z,101231.22
2023-05-19T03:18:48.020Z,101228.34
2023-05-19T03:21:19.210Z,101231.24
2023-05-19T03:23:50.586Z,101226.50
2023-05-19T03:26:23.222Z,101225.46
2023-05-19T03:28:54.721Z,101228.39
2023-05-19T03:31:26.842Z,101235.39
2023-05-19T03:33:58.746Z,101234.41
2023-05-19T03:36:32.984Z,101236.40
2023-05-19T03:39:04.500Z,101241.26
2023-05-19T03:41:35.959Z,101241.64
2023-05-19T03:44:07.981Z,101237.54
2023-05-19T03:46:39.271Z,101240.45
2023-05-19T03:49:33.917Z,101244.63
2023-05-19T03:52:13.870Z,101244.32
2023-05-19T03:55:00.441Z,101246.08
2023-05-19T03:57:31.870Z,101243.52
2023-05-19T04:00:04.103Z,101243.96
2023-05-19T04:02:43.583Z,101248.30
2023-05-19T04:05:15.430Z,101255.77
2023-05-19T04:07:47.765Z,101252.38
2023-05-19T04:10:18.951Z,101255.21
2023-05-19T04:12:51.585Z,101255.95
2023-05-19T04:15:22.977Z,101257.70
2023-05-19T04:17:54.766Z,101264.88
2023-05-19T04:20:26.422Z,101269.62
2023-05-19T04:22:57.460Z,101277.13
2023-05-19T04:25:29.097Z,101272.09
2023-05-19T04:28:01.227Z,101273.35
2023-05-19T04:30:33.647Z,101273.98
2023-05-19T04:33:05.922Z,101271.59
2023-05-19T04:35:38.198Z,101270.23
2023-05-19T04:38:12.169Z,101271.59
2023-05-19T04:40:44.452Z,101277.06
2023-05-19T04:43:15.912Z,101274.54
2023-05-19T04:45:50.244Z,101269.13
2023-05-19T04:48:23.213Z,101271.15
2023-05-19T04:50:54.625Z,101273.88
2023-05-19T04:53:27.120Z,101279.52
2023-05-19T04:55:59.236Z,101278.09
2023-05-19T04:58:30.542Z,101281.39
2023-05-19T05:01:01.724Z,101284.14
2023-05-19T05:03:34.654Z,101282.51
2023-05-19T05:06:06.658Z,101283.56
2023-05-19T05:08:40.260Z,101287.18
2023-05-19T05:11:13.241Z,101285.34
2023-05-19T05:13:45.630Z,101288.09
2023-05-19T05:16:19.028Z,101294.83
2023-05-19T05:18:52.275Z,101295.72
2023-05-19T05:21:24.641Z,101294.23
2023-05-19T05:23:57.013Z,101296.80
2023-05-19T05:26:34.371Z,101295.03
2023-05-19T05:29:05.445Z,101293.50
2023-05-19T05:31:36.993Z,101290.86
2023-05-19T05:34:08.994Z,101292.81
2023-05-19T05:36:41.845Z,101291.34
2023-05-19T05:39:14.066Z,101291.73
2023-05-19T05:41:45.591Z,101287.86
2023-05-19T05:44:17.109Z,101289.52
2023-05-19T05:46:50.467Z,101289.44
2023-05-19T05:49:23.103Z,101286.98
2023-05-19T05:54:35.352Z,101287.81
2023-05-19T05:57:08.238Z,101296.12
2023-05-19T05:59:40.980Z,101296.48
2023-05-19T06:02:12.626Z,101295.60
2023-05-19T06:04:44.189Z,101295.98
2023-05-19T06:07:15.670Z,101297.48
2023-05-19T06:09:49.336Z,101296.35
2023-05-19T06:12:20.681Z,101295.86
2023-05-19T06:14:52.244Z,101296.01
2023-05-19T06:17:43.932Z,101297.98
2023-05-19T06:20:16.415Z,101296.73
2023-05-19T06:22:47.696Z,101295.31
2023-05-19T06:25:20.619Z,101295.90
2023-05-19T06:27:52.540Z,101296.45
2023-05-19T06:30:24.528Z,101307.71
2023-05-19T06:33:22.384Z,101304.04
2023-05-19T06:35:53.926Z,101306.60
2023-05-19T06:38:25.642Z,101308.52
2023-05-19T06:40:56.815Z,101310.70
2023-05-19T06:43:28.804Z,101313.02
2023-05-19T06:46:02.066Z,101317.16
2023-05-19T06:48:34.745Z,101319.54
2023-05-19T06:51:07.741Z,101318.73
2023-05-19T06:53:39.154Z,101319.73
2023-05-19T06:56:12.506Z,101320.77
2023-05-19T06:58:44.329Z,101324.09
2023-05-19T07:01:16.091Z,101325.56
2023-05-19T07:03:50.931Z,101322.71
2023-05-19T07:06:22.864Z,101323.55
2023-05-19T07:08:55.916Z,101325.36
2023-05-19T07:11:28.609Z,101329.43
2023-05-19T07:14:00.565Z,101332.71
2023-05-19T07:16:32.544Z,101331.77
2023-05-19T07:19:04.384Z,101334.52
2023-05-19T07:21:37.110Z,101335.23
2023-05-19T07:24:09.341Z,101333.92
2023-05-19T07:26:40.646Z,101334.62
2023-05-19T07:29:12.800Z,101329.50
2023-05-19T07:31:44.071Z,101329.84
2023-05-19T07:34:15.435Z,101330.23
2023-05-19T07:36:46.459Z,101327.37
2023-05-19T07:39:18.470Z,101332.85
2023-05-19T07:41:52.877Z,101335.74
2023-05-19T07:44:24.056Z,101335.85
2023-05-19T07:46:55.612Z,101336.60
2023-05-19T07:49:26.967Z,101333.47
2023-05-19T07:51:58.467Z,101339.57
2023-05-19T07:54:29.494Z,101337.37
2023-05-19T07:57:01.275Z,101335.49
2023-05-19T07:59:32.631Z,101340.25
2023-05-19T08:02:05.308Z,101336.64
2023-05-19T08:04:37.111Z,101338.41
2023-05-19T08:07:08.658Z,101339.52
2023-05-19T08:09:39.591Z,101335.94
2023-05-19T08:12:11.321Z,101338.27
2023-05-19T08:14:42.303Z,101335.98
2023-05-19T08:17:13.201Z,101338.52
2023-05-19T08:19:44.790Z,101339.52
2023-05-19T08:22:15.974Z,101339.72
2023-05-19T08:24:49.605Z,101336.78
2023-05-19T08:27:21.383Z,101337.83
2023-05-19T08:29:52.739Z,101341.04
2023-05-19T08:32:23.903Z,101342.02
2023-05-19T08:34:55.932Z,101341.54
2023-05-19T08:37:27.237Z,101349.05
2023-05-19T08:39:58.620Z,101346.80
2023-05-19T08:42:29.776Z,101355.38
2023-05-19T08:45:01.392Z,101355.78
2023-05-19T08:47:33.452Z,101354.45
2023-05-19T08:50:10.093Z,101355.23
2023-05-19T08:52:52.508Z,101357.46
2023-05-19T08:55:35.083Z,101361.31
2023-05-19T08:58:06.759Z,101361.95
2023-05-19T09:00:38.265Z,101365.39
2023-05-19T09:03:22.785Z,101364.05
2023-05-19T09:05:54.932Z,101363.77
2023-05-19T09:08:26.860Z,101365.48
2023-05-19T09:10:58.614Z,101366.99
2023-05-19T09:13:29.923Z,101365.22
2023-05-19T09:16:01.047Z,101364.98
2023-05-19T09:18:33.277Z,101364.52
2023-05-19T09:21:04.781Z,101363.98
2023-05-19T09:23:36.317Z,101366.30
2023-05-19T09:26:08.413Z,101367.73
2023-05-19T09:28:41.686Z,101367.52
2023-05-19T09:31:13.229Z,101369.55
2023-05-19T09:33:46.308Z,101373.21
2023-05-19T09:36:17.791Z,101374.53
2023-05-19T09:38:49.418Z,101369.73
2023-05-19T09:41:22.223Z,101375.98
2023-05-19T09:43:57.146Z,101376.33
2023-05-19T09:46:30.309Z,101374.78
2023-05-19T09:49:01.645Z,101371.77
2023-05-19T09:51:33.208Z,101372.30
2023-05-19T09:54:04.576Z,101374.10
2023-05-19T09:56:37.023Z,101373.10
2023-05-19T09:59:08.256Z,101372.23
2023-05-19T10:01:41.420Z,101368.86
2023-05-19T10:04:13.743Z,101369.17
2023-05-19T10:06:46.446Z,101370.23
2023-05-19T10:09:18.219Z,101368.25
2023-05-19T10:11:49.386Z,101358.70
2023-05-19T10:14:21.478Z,101359.09
2023-05-19T10:16:54.170Z,101357.84
2023-05-19T10:19:27.727Z,101358.76
2023-05-19T10:21:58.912Z,101359.38
2023-05-19T10:24:30.484Z,101361.84
2023-05-19T10:27:06.505Z,101362.72
2023-05-19T10:29:42.450Z,101371.60
2023-05-19T10:32:16.902Z,101368.06
2023-05-19T10:35:27.142Z,101367.48
2023-05-19T10:38:07.496Z,101370.73
2023-05-19T10:40:42.543Z,101368.19
2023-05-19T10:43:27.506Z,101368.36
2023-05-19T10:46:01.187Z,101364.19
2023-05-19T10:48:37.405Z,101365.38
2023-05-19T10:51:12.349Z,101367.38
2023-05-19T10:53:50.615Z,101369.91
2023-05-19T10:56:36.300Z,101365.99
2023-05-19T10:59:07.793Z,101367.53
2023-05-19T11:01:41.758Z,101366.11
2023-05-19T11:04:16.065Z,101366.40
2023-05-19T11:06:53.756Z,101362.61
2023-05-19T11:09:37.801Z,101358.26
2023-05-19T11:12:13.052Z,101354.67
2023-05-19T11:14:45.978Z,101355.59
2023-05-19T11:17:17.912Z,101357.73
2023-05-19T11:19:57.465Z,101357.69
2023-05-19T11:22:29.357Z,101360.55
2023-05-19T11:25:00.837Z,101357.67
2023-05-19T11:27:33.099Z,101357.77
2023-05-19T11:30:14.624Z,101356.79
2023-05-19T11:32:48.999Z,101354.38
2023-05-19T11:35:21.583Z,101349.46
2023-05-19T11:37:55.287Z,101351.16
2023-05-19T11:40:27.808Z,101350.55
2023-05-19T11:42:59.244Z,101348.63
2023-05-19T11:45:32.683Z,101351.14
2023-05-19T11:48:05.527Z,101351.00
2023-05-19T11:50:38.460Z,101349.34
2023-05-19T11:53:12.678Z,101350.36
2023-05-19T11:55:48.767Z,101348.25
2023-05-19T11:58:27.383Z,101342.77
2023-05-19T12:00:58.665Z,101339.59
2023-05-19T12:03:30.011Z,101338.23
2023-05-19T12:06:05.857Z,101339.54
2023-05-19T12:08:38.669Z,101337.86
2023-05-19T12:11:10.168Z,101335.70
2023-05-19T12:13:42.007Z,101336.77
2023-05-19T12:16:13.397Z,101334.76
2023-05-19T12:18:45.348Z,101338.17
2023-05-19T12:21:17.578Z,101332.98
2023-05-19T12:23:48.635Z,101332.60
2023-05-19T12:26:22.424Z,101332.85
2023-05-19T12:28:54.401Z,101336.44
2023-05-19T12:31:25.663Z,101336.59
2023-05-19T12:33:58.860Z,101337.89
2023-05-19T12:36:32.346Z,101337.55
2023-05-19T12:39:06.334Z,101339.59
2023-05-19T12:41:37.721Z,101335.66
2023-05-19T12:44:18.386Z,101337.13
2023-05-19T12:46:53.145Z,101339.45
2023-05-19T12:49:24.786Z,101339.74
2023-05-19T12:51:56.431Z,101340.23
2023-05-19T12:54:27.906Z,101338.48
2023-05-19T12:57:00.632Z,101331.28
2023-05-19T12:59:38.887Z,101324.23
2023-05-19T13:02:10.905Z,101314.27
2023-05-19T13:04:42.535Z,101315.23
2023-05-19T13:07:14.293Z,101315.34
2023-05-19T13:09:45.818Z,101314.62
2023-05-19T13:12:17.330Z,101310.27
2023-05-19T13:14:48.516Z,101309.11
2023-05-19T13:17:20.736Z,101308.02
2023-05-19T13:19:52.751Z,101307.71
2023-05-19T13:22:24.225Z,101311.99
2023-05-19T13:24:59.081Z,101311.41
2023-05-19T13:27:30.567Z,101310.84
2023-05-19T13:30:01.957Z,101305.50
2023-05-19T13:32:33.286Z,101305.36
2023-05-19T13:35:04.884Z,101300.73
2023-05-19T13:37:36.509Z,101298.09
2023-05-19T13:40:09.620Z,101291.23
2023-05-19T13:42:40.625Z,101289.15
2023-05-19T13:45:13.584Z,101285.04
2023-05-19T13:47:45.091Z,101278.27
2023-05-19T13:50:16.421Z,101266.64
2023-05-19T13:52:47.691Z,101264.42
2023-05-19T13:55:19.277Z,101255.29
2023-05-19T13:57:50.929Z,101251.73
2023-05-19T14:00:23.128Z,101250.34
2023-05-19T14:02:54.458Z,101258.29
2023-05-19T14:05:27.752Z,101255.39
2023-05-19T14:08:00.595Z,101256.40
2023-05-19T14:10:32.068Z,101257.52
2023-05-19T14:13:29.918Z,101252.35
2023-05-19T14:15:55.683Z,101249.91
2023-05-19T14:18:27.183Z,101245.65
2023-05-19T14:20:58.288Z,101241.01
2023-05-19T14:23:30.455Z,101238.66
2023-05-19T14:26:01.478Z,101233.51
2023-05-19T14:28:32.596Z,101226.04
2023-05-19T14:31:03.955Z,101218.45
2023-05-19T14:33:35.695Z,101209.98
2023-05-19T14:36:09.161Z,101205.65
2023-05-19T14:38:40.423Z,101203.18
2023-05-19T14:41:11.614Z,101205.05
2023-05-19T14:43:43.259Z,101206.68
2023-05-19T14:46:14.169Z,101208.73
2023-05-19T14:48:45.409Z,101204.19
2023-05-19T14:51:16.775Z,101204.33
2023-05-19T14:53:49.055Z,101208.98
2023-05-19T14:56:20.653Z,101207.73
2023-05-19T14:58:51.814Z,101201.17
2023-05-19T15:01:22.747Z,101206.13
2023-05-19T15:03:54.075Z,101199.69
2023-05-19T15:06:25.456Z,101197.52
2023-05-19T15:08:56.891Z,101195.73
2023-05-19T15:11:28.469Z,101199.86
2023-05-19T15:13:59.695Z,101197.85
2023-05-19T15:16:30.914Z,101199.14
2023-05-19T15:19:02.248Z,101197.65
2023-05-19T15:21:33.706Z,101199.89
2023-05-19T15:24:04.947Z,101201.22
2023-05-19T15:26:36.047Z,101208.27
2023-05-19T15:29:07.555Z,101208.26
2023-05-19T15:31:38.729Z,101210.70
2023-05-19T15:34:10.041Z,101210.80
2023-05-19T15:36:41.325Z,101204.84
2023-05-19T15:39:12.553Z,101206.29
2023-05-19T15:41:43.757Z,101203.52
2023-05-19T15:44:15.078Z,101202.41
2023-05-19T15:46:46.198Z,101203.90
2023-05-19T15:49:18.148Z,101197.35
2023-05-19T15:51:49.670Z,101193.41
2023-05-19T15:54:20.715Z,101187.95
2023-05-19T15:56:51.735Z,101180.63
2023-05-19T15:59:22.855Z,101174.30
2023-05-19T16:01:54.031Z,101175.20
2023-05-19T16:04:25.206Z,101172.60
2023-05-19T16:06:56.248Z,101171.67
2023-05-19T16:09:27.373Z,101169.98
2023-05-19T16:11:58.389Z,101174.40
2023-05-19T16:14:32.117Z,101174.82
2023-05-19T16:17:03.354Z,101173.39
2023-05-19T16:19:34.533Z,101168.55
2023-05-19T16:22:05.648Z,101166.80
2023-05-19T16:24:36.725Z,101157.93
2023-05-19T16:27:08.489Z,101155.77
2023-05-19T16:29:39.448Z,101146.09
2023-05-19T16:32:10.764Z,101145.91
2023-05-19T16:34:41.938Z,101141.19
2023-05-19T16:37:13.601Z,101141.61
2023-05-19T16:39:45.078Z,101141.06
2023-05-19T16:42:16.415Z,101136.92
2023-05-19T16:44:47.362Z,101134.83
2023-05-19T16:47:19.187Z,101131.55
2023-05-19T16:49:50.195Z,101128.22
2023-05-19T16:52:21.443Z,101126.75
2023-05-19T16:54:52.852Z,101125.06
2023-05-19T16:57:24.367Z,101131.79
2023-05-19T16:59:55.910Z,101131.58
2023-05-19T17:02:26.830Z,101139.27
2023-05-19T17:04:58.180Z,101143.18
2023-05-19T17:07:29.953Z,101148.70
2023-05-19T17:10:00.961Z,101150.50
2023-05-19T17:12:32.552Z,101155.83
2023-05-19T17:15:03.984Z,101157.53
2023-05-19T17:17:35.376Z,101162.84
2023-05-19T17:20:08.001Z,101164.22
2023-05-19T17:22:39.268Z,101164.65
2023-05-19T17:25:12.363Z,101168.23
2023-05-19T17:27:43.898Z,101174.27
2023-05-19T17:30:16.621Z,101167.98
2023-05-19T17:32:48.149Z,101170.30
2023-05-19T17:35:19.784Z,101172.95
2023-05-19T17:37:51.160Z,101173.15
2023-05-19T17:40:22.516Z,101173.31
2023-05-19T17:42:53.966Z,101172.40
2023-05-19T17:45:25.379Z,101174.61
2023-05-19T17:47:56.672Z,101172.95
2023-05-19T17:50:27.832Z,101175.00
2023-05-19T17:53:01.737Z,101173.84
2023-05-19T17:55:34.364Z,101172.72
2023-05-19T17:58:06.993Z,101175.50
2023-05-19T18:00:39.391Z,101182.61
2023-05-19T18:03:12.179Z,101177.06
2023-05-19T18:05:44.850Z,101179.58
2023-05-19T18:08:18.115Z,101175.14
2023-05-19T18:10:51.708Z,101174.38
2023-05-19T18:13:23.768Z,101179.20
2023-05-19T18:15:55.095Z,101170.56
2023-05-19T18:18:26.496Z,101176.09
2023-05-19T18:20:58.191Z,101179.47
2023-05-19T18:23:29.413Z,101173.27
2023-05-19T18:26:00.553Z,101174.10
2023-05-19T18:28:31.809Z,101175.16
2023-05-19T18:31:03.801Z,101171.86
2023-05-19T18:33:35.596Z,101168.27
2023-05-19T18:36:08.328Z,101169.30
2023-05-19T18:38:39.410Z,101172.88
2023-05-19T18:41:10.873Z,101161.64
2023-05-19T18:43:42.323Z,101156.59
2023-05-19T18:46:13.736Z,101167.42
2023-05-19T18:48:45.149Z,101165.58
2023-05-19T18:51:18.658Z,101167.51
2023-05-19T18:53:50.905Z,101166.87
2023-05-19T18:56:28.689Z,101167.92
2023-05-19T18:59:00.015Z,101170.21
2023-05-19T19:01:31.462Z,101168.83
2023-05-19T19:04:03.441Z,101175.53
2023-05-19T19:06:34.671Z,101177.77
2023-05-19T19:09:07.022Z,101178.57
2023-05-19T19:11:38.409Z,101183.85
2023-05-19T19:14:11.854Z,101184.01
2023-05-19T19:16:44.784Z,101186.56
2023-05-19T19:19:19.553Z,101188.27
2023-05-19T19:21:50.792Z,101191.20
2023-05-19T19:24:23.887Z,101194.52
2023-05-19T19:26:57.771Z,101191.89
2023-05-19T19:29:28.622Z,101189.05
2023-05-19T19:32:00.749Z,101189.97
2023-05-19T19:34:31.959Z,101196.73
2023-05-19T19:37:03.489Z,101200.39
2023-05-19T19:39:34.779Z,101202.08
2023-05-19T19:42:06.883Z,101203.11
2023-05-19T19:44:38.070Z,101197.89
2023-05-19T19:47:09.255Z,101196.45
2023-05-19T19:49:41.461Z,101203.33
2023-05-19T19:52:13.530Z,101201.98
2023-05-19T19:54:44.833Z,101199.99
2023-05-19T19:57:17.772Z,101196.10
2023-05-19T19:59:55.143Z,101196.55
2023-05-19T20:02:28.945Z,101196.84
2023-05-19T20:05:04.769Z,101197.46
2023-05-19T20:07:37.382Z,101204.85
2023-05-19T20:10:10.235Z,101205.48
2023-05-19T20:12:42.064Z,101195.20
2023-05-19T20:15:15.397Z,101184.92
2023-05-19T20:17:48.341Z,101182.55
2023-05-19T20:20:20.034Z,101176.64
2023-05-19T20:22:51.095Z,101182.78
2023-05-19T20:25:22.967Z,101184.19
2023-05-19T20:27:54.450Z,101186.01
2023-05-19T20:30:27.843Z,101184.37
2023-05-19T20:32:58.893Z,101187.06
2023-05-19T20:35:30.675Z,101183.59
2023-05-19T20:38:01.816Z,101171.33
2023-05-19T20:40:33.199Z,101170.30
2023-05-19T20:43:04.746Z,101172.09
2023-05-19T20:45:36.391Z,101173.41
2023-05-19T20:48:09.192Z,101168.48
2023-05-19T20:50:40.650Z,101164.58
2023-05-19T20:53:11.705Z,101160.47
2023-05-19T20:55:44.903Z,101159.27
2023-05-19T20:58:16.616Z,101155.19
2023-05-19T21:00:48.867Z,101156.95
2023-05-19T21:03:21.487Z,101155.86
2023-05-19T21:05:53.794Z,101151.09
2023-05-19T21:08:25.620Z,101151.24
2023-05-19T21:10:56.603Z,101154.20
2023-05-19T21:13:27.801Z,101154.29
2023-05-19T21:16:00.327Z,101160.52
2023-05-19T21:18:31.343Z,101156.54
2023-05-19T21:21:05.892Z,101158.77
2023-05-19T21:23:37.156Z,101152.01
2023-05-19T21:26:08.425Z,101153.80
2023-05-19T21:28:39.509Z,101156.02
2023-05-19T21:31:10.383Z,101159.30
2023-05-19T21:33:41.272Z,101147.95
2023-05-19T21:36:12.672Z,101157.98
2023-05-19T21:38:43.672Z,101157.02
2023-05-19T21:41:15.028Z,101151.67
2023-05-19T21:43:47.216Z,101149.13
2023-05-19T21:46:18.378Z,101152.16
2023-05-19T21:48:49.617Z,101149.98
2023-05-19T21:51:21.088Z,101147.70
2023-05-19T21:53:52.448Z,101142.45
2023-05-19T21:56:23.985Z,101141.56
2023-05-19T21:58:55.020Z,101148.92
2023-05-19T22:01:26.635Z,101145.03
2023-05-19T22:03:58.062Z,101143.47
2023-05-19T22:06:29.777Z,101145.50
2023-05-19T22:09:02.663Z,101145.51
2023-05-19T22:11:34.321Z,101146.55
2023-05-19T22:14:05.661Z,101144.45
2023-05-19T22:16:37.188Z,101144.13
2023-05-19T22:19:08.421Z,101139.16
2023-05-19T22:21:39.923Z,101140.78
2023-05-19T22:24:11.366Z,101141.30
2023-05-19T22:26:43.396Z,101145.86
2023-05-19T22:29:16.599Z,101144.61
2023-05-19T22:31:47.840Z,101144.90
2023-05-19T22:34:19.681Z,101141.84
2023-05-19T22:36:51.381Z,101143.32
2023-05-19T22:39:22.733Z,101137.05
2023-05-19T22:41:54.030Z,101143.02
2023-05-19T22:44:25.268Z,101134.37
2023-05-19T22:46:56.557Z,101140.22
2023-05-19T22:49:29.980Z,101138.16
2023-05-19T22:52:01.013Z,101131.96
2023-05-19T22:54:31.951Z,101124.16
2023-05-19T22:57:03.515Z,101127.60
2023-05-19T22:59:35.562Z,101133.09
2023-05-19T23:02:07.520Z,101131.81
2023-05-19T23:04:39.169Z,101128.14
2023-05-19T23:07:10.794Z,101131.45
2023-05-19T23:09:42.049Z,101124.73
2023-05-19T23:12:13.568Z,101119.55
2023-05-19T23:14:45.166Z,101115.66
2023-05-19T23:17:16.313Z,101112.02
2023-05-19T23:19:47.594Z,101103.77
2023-05-19T23:22:18.960Z,101104.52
2023-05-19T23:24:50.561Z,101103.48
2023-05-19T23:27:22.054Z,101101.66
2023-05-19T23:29:54.264Z,101096.44
2023-05-19T23:32:25.649Z,101093.80
2023-05-19T23:34:57.474Z,101089.52
2023-05-19T23:37:28.740Z,101086.38
2023-05-19T23:40:00.500Z,101087.34
2023-05-19T23:42:32.055Z,101082.67
2023-05-19T23:45:03.616Z,101084.61
2023-05-19T23:47:34.968Z,101089.25
2023-05-19T23:50:06.571Z,101086.65
2023-05-19T23:52:37.689Z,101088.80
2023-05-19T23:55:12.822Z,101090.18
2023-05-19T23:57:44.704Z,101086.86
